Wednesday, November 22, 2017, 12:58 PM GMT
Back to Local

CWDQ, La Tuque

Location: , , Canada Lat: 47.417
Local Time: 12:58 PM GMT (12:58 GMT) Lon: -72.8
Time Zone: GMT Elev: 554 ft

Show me the last for .
Show Decoded

2017-11-22 12:00 METAR CWDQ 221200Z AUTO 00000KT M00/M00 RMK AO1 SOG 10 3012 SLP125 T10031004 =
2017-11-22 11:00 METAR CWDQ 221100Z AUTO 14001KT 00/M00 RMK AO1 SOG 10 1012 SLP119 T00001001 =
2017-11-22 10:00 METAR CWDQ 221000Z AUTO 10001KT 00/M00 RMK AO1 SOG 10 3009 SLP116 T00001001 =
2017-11-22 09:00 METAR CWDQ 220900Z AUTO 19003KT M00/00 RMK AO1 SOG 11 1018 SLP113 T10010000 =
2017-11-22 08:00 METAR CWDQ 220800Z AUTO 11002KT M00/00 RMK AO1 SOG 10 1017 SLP107 T10030000 =
2017-11-22 07:00 METAR CWDQ 220700Z AUTO 17002KT 01/M00 RMK AO1 SOG 11 3021 SLP107 T00071001 =
2017-11-22 06:00 METAR CWDQ 220600Z AUTO 15003KT 01/M01 RMK AO1 SOG 11 3012 SLP095 T00051006 =
2017-11-22 05:00 METAR CWDQ 220500Z AUTO 15002KT 01/M01 RMK AO1 SOG 10 3010 SLP090 T00071007 =
2017-11-22 04:00 METAR CWDQ 220400Z AUTO 14002KT 01/M01 RMK AO1 SOG 11 3008 SLP086 T00101008 =
2017-11-22 03:00 METAR CWDQ 220300Z AUTO 14003KT 01/M01 RMK AO1 SOG 11 3006 SLP084 T00111010 =
2017-11-22 02:00 METAR CWDQ 220200Z AUTO 16003KT M00/M01 RMK AO1 SOG 11 1009 SLP081 T10041012 =
2017-11-22 01:00 METAR CWDQ 220100Z AUTO 17003KT M00/M01 RMK AO1 SOG 11 1009 SLP079 T10031014 =
2017-11-22 00:00 METAR CWDQ 220000Z AUTO 17006KT 01/M02 RMK AO1 SOG 11 3012 SLP078 T00121016 =
2017-11-21 23:00 METAR CWDQ 212300Z AUTO 17006KT 01/M02 RMK AO1 SOG 11 1012 SLP072 T00111018 =
2017-11-21 22:00 METAR CWDQ 212200Z AUTO 17007KT 01/M02 RMK AO1 SOG 11 1017 SLP071 T00091020 =
2017-11-21 21:00 METAR CWDQ 212100Z AUTO 16005KT M00/M02 RMK AO1 SOG 11 3007 SLP067 T10031023 =
2017-11-21 20:00 METAR CWDQ 212000Z AUTO 16004KT M00/M02 RMK AO1 SOG 11 5005 SLP062 T10031015 =
2017-11-21 19:00 METAR CWDQ 211900Z AUTO 16006KT M00/M03 RMK AO1 SOG 11 6021 SLP055 T10011030 =
2017-11-21 18:00 METAR CWDQ 211800Z AUTO 18004KT M01/M04 RMK AO1 SOG 11 6026 SLP062 T10091038
                 50020 =
2017-11-21 17:00 METAR CWDQ 211700Z AUTO 16006KT M03/M05 RMK AO1 SOG 11 7029 SLP068 T10281049
                 50020 =
2017-11-21 16:00 METAR CWDQ 211600Z AUTO 17006KT M04/M06 RMK AO1 0PAST HR SOG 11 8028 SLP077
                 P0008 T10401058 50020 =
2017-11-21 15:00 METAR CWDQ 211500Z AUTO 16008KT M06/M08 RMK AO1 SOG 11 8023 SLP089 T10561075 =
2017-11-21 14:00 METAR CWDQ 211400Z AUTO 17006KT M07/M10 RMK AO1 SOG 11 8019 SLP099 T10731097 =
2017-11-21 13:00 METAR CWDQ 211300Z AUTO 17005KT M08/M10 RMK AO1 SOG 11 6022 SLP107 T10751104 =

Support USWX by starting your Amazon purchase here.